Weather observations for the past three days for
Jasper Walker County Airport & Bevill Field
Imperial (Metric)
Date Time (cdt) Wind (mph) Vis. (mi.) Weather Sky Cond. Temperature (ºF) Relative Humidity Wind Chill (°F) Heat Index (°F) Pressure Precipitation (in)
Air Dwpt 6 hour altimeter (in) sea level (mb) 1 hr 3 hr 6 hr
Max. Min.
10 14:55 E 6 10.00 Fair CLR 82.4 53.6 37% 81 30.03 0.0
10 14:35 Vrbl 6 10.00 Fair CLR 82.4 55.4 40% 82 30.03 0.0
10 14:15 Vrbl 5 10.00 Fair CLR 80.6 55.4 42% 81 30.03 0.0
10 13:55 Vrbl 5 10.00 Fair CLR 80.6 53.6 39% 80 30.04 0.0
10 13:35 Calm 10.00 Fair CLR 80.6 55.4 42% 81 30.04 0.0
10 13:15 Vrbl 5 10.00 Fair CLR 78.8 57.2 48% 80 30.05 0.0
10 12:55 SE 5 10.00 Fair CLR 78.8 57.2 48% 80 30.05 0.0
10 12:35 Calm 10.00 A Few Clouds FEW038 FEW045 78.8 59 51% 80 30.06 0.0
10 12:15 Calm 10.00 Partly Cloudy FEW033 SCT039 SCT045 77 60.8 57% 79 30.07 0.0
10 11:55 Vrbl 5 10.00 Partly Cloudy SCT028 SCT034 77 62.6 61% 79 30.07 0.0
10 11:35 Calm 10.00 A Few Clouds FEW027 77 64.4 65% 79 30.07 0.0
10 11:15 Calm 10.00 Fair CLR 73.4 62.6 69% 30.08 0.0
10 10:55 Vrbl 5 10.00 A Few Clouds FEW020 73.4 62.6 69% 30.08 0.0
10 10:35 Calm 10.00 Partly Cloudy SCT017 71.6 62.6 73% 30.08 0.0
10 10:15 Vrbl 3 10.00 Overcast OVC016 71.6 64.4 78% 30.07 0.0
10 09:55 Calm 10.00 Overcast OVC015 69.8 64.4 83% 30.07 0.0
10 09:35 Vrbl 6 10.00 Overcast OVC012 68 64.4 88% 30.08 0.0
10 09:15 Vrbl 3 10.00 Overcast BKN008 OVC012 68 64.4 88% 30.08 0.0
10 08:55 Calm 10.00 Overcast OVC007 66.2 64.4 94% 30.08 0.0
10 08:35 Calm 9.00 Overcast OVC004 66.2 64.4 94% 30.08 0.0
10 08:15 Calm 4.00 Fog/Mist OVC003 64.4 64.4 100% 30.07 0.0
10 07:55 Calm 2.00 Fog/Mist OVC003 64.4 64.4 100% 30.06 0.0
10 07:35 Calm 2.00 Fog/Mist OVC003 62.6 62.6 100% 30.06 0.0
10 07:15 Calm 2.50 Fog/Mist OVC003 62.6 62.6 100% 30.05 0.0
10 06:55 Calm 0.75 Light Drizzle Fog/Mist OVC002 62.6 62.6 100% 30.04 0.0
10 06:35 Calm 0.25 Drizzle Fog OVC002 62.6 62.6 100% 30.03 0.0
10 06:15 Calm 0.25 Fog OVC002 62.6 62.6 100% 30.02 0.0
10 05:55 Calm 0.25 Fog OVC002 62.6 62.6 100% 30 0.0
10 05:35 Calm 0.50 Fog OVC002 62.6 62.6 100% 30 0.0
10 05:15 Calm 1.00 Fog/Mist OVC002 62.6 62.6 100% 29.99 0.0
10 04:55 Calm 1.00 Fog/Mist OVC003 62.6 62.6 100% 29.99 0.0
10 04:35 Calm 0.75 Fog/Mist OVC002 62.6 62.6 100% 29.98 0.0
10 04:15 Calm 0.50 Fog OVC002 62.6 62.6 100% 29.98 0.0
10 03:55 Calm 0.25 Fog OVC002 64.4 64.4 100% 29.98 0.0
10 03:35 Calm 0.50 Fog OVC002 64.4 64.4 100% 29.96 0.0
10 03:15 Calm 7.00 Overcast OVC002 62.6 62.6 100% 29.96 0.0
10 02:55 Calm 4.00 Fog/Mist OVC003 62.6 62.6 100% 29.96 0.0
10 02:35 Calm 9.00 Overcast OVC003 62.6 60.8 94% 29.95 0.0
10 02:15 Calm 8.00 Overcast OVC003 60.8 60.8 100% 29.96 0.0
10 01:55 Calm 10.00 Overcast OVC004 60.8 60.8 100% 29.96 0.0
10 01:35 Calm 9.00 Overcast OVC006 59 59 100% 29.96 0.0
10 01:15 Calm 9.00 Overcast OVC007 59 59 100% 29.96 0.0
10 00:55 Calm 5.00 Fog/Mist BKN008 57.2 57.2 100% 29.97 0.0
10 00:35 Calm 8.00 Overcast OVC006 59 59 100% 29.97 0.0
10 00:15 Calm 1.50 Fog/Mist OVC008 59 59 100% 29.96 0.0
09 23:55 Calm 9.00 Partly Cloudy SCT009 59 59 100% 29.97 0.0
09 23:35 Calm 9.00 A Few Clouds FEW023 59 59 100% 29.97 0.0
09 23:15 Calm 4.00 Fog/Mist FEW023 59 59 100% 29.97 0.0
09 22:55 Calm 8.00 Fair CLR 59 59 100% 29.98 0.0
09 22:35 Calm 6.00 Fog/Mist FEW029 59 59 100% 29.98 0.0
09 22:15 Calm 9.00 Partly Cloudy SCT029 60.8 60.8 100% 29.98 0.0
09 21:55 Calm 2.50 Fog/Mist BKN030 62.6 60.8 94% 29.97 0.0
09 21:35 Calm 9.00 Fair CLR 60.8 60.8 100% 29.96 0.0
09 21:15 Calm 9.00 Fair CLR 62.6 62.6 100% 29.96 0.0
09 20:55 Calm 9.00 Fair CLR 62.6 62.6 100% 29.94 0.0
09 20:35 Calm 3.00 Fog/Mist CLR 64.4 62.6 94% 29.93 0.0
09 20:15 Calm 9.00 Fair CLR 64.4 64.4 100% 29.92 0.0
09 19:55 Calm 9.00 Fair CLR 66.2 64.4 94% 29.91 0.0
09 19:35 Calm 10.00 Fair CLR 68 66.2 94% 29.9 0.0
09 19:15 Calm 10.00 Fair CLR 68 66.2 94% 29.9 0.0
09 18:55 Calm 10.00 Fair CLR 69.8 66.2 88% 29.9 0.0
09 18:35 Calm 10.00 Fair CLR 71.6 68 88% 29.89 0.0
09 18:15 Calm 10.00 Fair CLR 71.6 68 88% 29.89 0.0
09 17:55 Calm 10.00 Fair CLR 71.6 66.2 83% 29.89 0.0
09 17:35 Calm 10.00 Fair CLR 73.4 62.6 69% 29.89 0.0
09 17:15 Calm 10.00 Fair CLR 73.4 64.4 74% 29.89 0.0
09 16:55 Calm 10.00 Fair CLR 73.4 62.6 69% 29.88 0.0
09 16:35 Calm 10.00 Fair CLR 73.4 62.6 69% 29.87 0.0
09 16:15 Calm 10.00 Fair CLR 73.4 62.6 69% 29.87 0.0
09 15:55 Calm 10.00 Fair CLR 73.4 62.6 69% 29.87 0.0
09 15:35 Calm 10.00 Fair CLR 73.4 62.6 69% 29.88 0.0
09 15:15 Calm 10.00 Fair CLR 73.4 62.6 69% 29.88 0.0
09 14:55 W 6 10.00 Fair CLR 73.4 62.6 69% 29.88 0.0
09 14:35 Vrbl 5 10.00 Fair CLR 73.4 62.6 69% 29.89 0.0
09 14:15 Calm 10.00 Partly Cloudy SCT021 71.6 62.6 73% 29.9 0.0
09 13:55 Calm 10.00 Partly Cloudy SCT021 71.6 62.6 73% 29.9 0.0
09 13:35 Vrbl 5 10.00 Partly Cloudy SCT021 71.6 62.6 73% 29.9 0.0
09 13:15 Calm 10.00 Partly Cloudy SCT021 71.6 62.6 73% 29.92 0.0
09 12:55 Vrbl 5 10.00 A Few Clouds FEW019 69.8 62.6 78% 29.93 0.0
09 12:35 Vrbl 5 10.00 Partly Cloudy SCT017 69.8 62.6 78% 29.93 0.0
09 12:15 Calm 10.00 Mostly Cloudy BKN017 69.8 62.6 78% 29.92 0.0
09 11:55 Vrbl 5 10.00 Mostly Cloudy BKN018 69.8 60.8 73% 29.93 0.0
09 11:35 Calm 10.00 Mostly Cloudy BKN018 69.8 60.8 73% 29.93 0.0
09 11:15 Calm 10.00 Fair CLR 68 60.8 78% 29.93 0.0
09 10:55 Calm 10.00 Partly Cloudy SCT016 68 60.8 78% 29.93 0.0
09 10:35 Vrbl 3 10.00 Overcast OVC015 68 60.8 78% 29.94 0.0
09 10:15 Calm 10.00 Overcast OVC013 66.2 60.8 83% 29.94 0.0
09 09:55 Calm 10.00 Overcast OVC014 64.4 60.8 88% 29.94 0.0
09 09:35 Calm 10.00 Overcast OVC011 64.4 60.8 88% 29.94 0.0
09 09:15 Calm 10.00 Overcast BKN010 OVC013 62.6 60.8 94% 29.93 0.0
09 08:55 Calm 10.00 Overcast FEW006 OVC011 62.6 60.8 94% 29.93 0.0
09 08:35 Calm 10.00 Overcast SCT005 OVC011 62.6 60.8 94% 29.93 0.0
09 08:15 Calm 9.00 Overcast BKN004 OVC015 60.8 60.8 100% 29.91 0.0
09 07:55 Calm 4.00 Fog/Mist OVC003 60.8 60.8 100% 29.91 0.0
09 07:35 Calm 3.00 Fog/Mist OVC003 60.8 60.8 100% 29.91 0.0
09 07:15 Calm 2.00 Fog/Mist OVC003 59 59 100% 29.92 0.0
09 06:55 Calm 0.25 Fog OVC002 59 59 100% 29.91 0.0
09 06:35 Calm 0.25 Fog OVC002 59 59 100% 29.91 0.0
09 06:15 Calm 0.50 Fog OVC002 59 59 100% 29.9 0.0
09 05:55 Calm 1.25 Fog/Mist OVC002 59 59 100% 29.9 0.0
09 05:35 Calm 1.25 Fog/Mist OVC003 59 59 100% 29.89 0.0
09 05:15 Calm 2.00 Fog/Mist OVC003 59 59 100% 29.88 0.0
09 04:55 Calm 1.00 Fog/Mist OVC003 59 59 100% 29.87 0.0
09 04:35 Calm 1.25 Fog/Mist OVC003 59 59 100% 29.86 0.0
09 04:15 Calm 1.75 Fog/Mist OVC003 59 59 100% 29.87 0.0
09 03:55 Calm 4.00 Fog/Mist OVC003 59 59 100% 29.87 0.0
09 03:35 Calm 5.00 Fog/Mist OVC003 57.2 57.2 100% 29.87 0.0
09 03:15 Calm 3.00 Fog/Mist OVC004 57.2 57.2 100% 29.88 0.0
09 02:55 Calm 6.00 Light Rain Fog/Mist OVC006 57.2 57.2 100% 29.89 0.0
09 02:35 Calm 10.00 Overcast OVC009 57.2 57.2 100% 29.91 0.0
09 02:15 Calm 10.00 Overcast BKN011 BKN016 OVC021 57.2 57.2 100% 29.89 0.0
09 01:55 Calm 10.00 Overcast FEW012 OVC023 55.4 55.4 100% 29.9 0.0
09 01:35 Calm 9.00 Overcast OVC025 55.4 55.4 100% 29.9 0.0
09 01:15 Calm 8.00 Mostly Cloudy BKN026 BKN034 53.6 53.6 100% 29.89 0.0
09 00:55 Calm 8.00 Fair CLR 53.6 53.6 100% 29.89 0.0
09 00:35 Calm 5.00 Fog/Mist CLR 53.6 53.6 100% 29.89 0.0
09 00:15 Calm 8.00 Partly Cloudy SCT037 53.6 53.6 100% 29.9 0.0
08 23:55 Calm 10.00 Mostly Cloudy BKN036 55.4 55.4 100% 29.92 0.0
08 23:35 Calm 1.50 Fog/Mist SCT039 SCT045 53.6 53.6 100% 29.93 0.0
08 23:15 Calm 8.00 Mostly Cloudy BKN045 53.6 53.6 100% 29.92 0.0
08 22:55 Calm 8.00 Mostly Cloudy BKN045 53.6 53.6 100% 29.92 0.0
08 22:35 Calm 9.00 Partly Cloudy SCT046 55.4 55.4 100% 29.91 0.0
08 22:15 Calm 10.00 Fair CLR 55.4 55.4 100% 29.91 0.0
08 21:55 Calm 10.00 Fair CLR 55.4 55.4 100% 29.92 0.0
08 21:35 Calm 10.00 Fair CLR 55.4 55.4 100% 29.93 0.0
08 21:15 Calm 10.00 Fair CLR 57.2 55.4 94% 29.92 0.0
08 20:55 Calm 10.00 Fair CLR 57.2 55.4 94% 29.91 0.0
08 20:35 Calm 10.00 Fair CLR 57.2 57.2 100% 29.93 0.0
08 20:15 Calm 10.00 Fair CLR 57.2 57.2 100% 29.93 0.0
08 19:55 Calm 10.00 Fair CLR 59 57.2 94% 29.92 0.0
08 19:35 Calm 10.00 Fair CLR 59 57.2 94% 29.92 0.0
08 19:15 Calm 10.00 Fair CLR 62.6 57.2 83% 29.92 0.0
08 18:55 Calm 10.00 Fair CLR 62.6 57.2 83% 29.93 0.0
08 18:35 Calm 10.00 Fair CLR 64.4 55.4 73% 29.94 0.0
08 18:15 Calm 10.00 Fair CLR 64.4 55.4 73% 29.94 0.0
08 17:55 Calm 10.00 Fair CLR 66.2 55.4 68% 29.96 0.0
08 17:35 Vrbl 5 10.00 Fair CLR 66.2 55.4 68% 29.95 0.0
08 17:15 Calm 10.00 Fair CLR 66.2 55.4 68% 29.96 0.0
08 16:55 Vrbl 5 10.00 Fair CLR 66.2 53.6 64% 29.94 0.0
08 16:35 Vrbl 3 10.00 Fair CLR 66.2 53.6 64% 29.95 0.0
08 16:15 Calm 10.00 Fair CLR 68 53.6 60% 29.95 0.0
08 15:55 Calm 10.00 Fair CLR 68 51.8 56% 29.96 0.0
08 15:35 SE 3 10.00 Fair CLR 68 53.6 60% 29.95 0.0
08 15:15 Calm 10.00 Fair CLR 69.8 51.8 53% 29.97 0.0
08 14:55 Vrbl 5 10.00 Fair CLR 69.8 50 50% 29.97 0.0
08 14:35 Vrbl 5 10.00 Fair CLR 68 50 53% 29.97 0.0
08 14:15 Vrbl 6 10.00 Fair CLR 69.8 50 50% 29.98 0.0
08 13:55 Calm 10.00 Fair CLR 68 51.8 56% 29.98 0.0
08 13:35 Vrbl 3 G 12 10.00 Fair CLR 68 51.8 56% 29.98 0.0
08 13:15 SE 5 10.00 Fair CLR 68 50 53% 29.99 0.0
08 12:55 E 5 10.00 Fair CLR 68 50 53% 30 0.0
08 12:35 SE 5 10.00 Fair CLR 68 50 53% 30.01 0.0
08 12:15 Calm 10.00 Fair CLR 68 48.2 49% 30.03 0.0
08 11:55 Vrbl 5 10.00 Fair CLR 69.8 48.2 46% 30.04 0.0
08 11:35 Calm 10.00 Fair CLR 69.8 48.2 46% 30.04 0.0
08 11:15 Vrbl 5 10.00 Fair CLR 68 50 53% 30.05 0.0
08 10:55 Vrbl 6 10.00 Fair CLR 68 48.2 49% 30.06 0.0
08 10:35 Vrbl 6 10.00 Fair CLR 66.2 48.2 52% 30.05 0.0
08 10:15 E 8 10.00 Fair CLR 66.2 46.4 49% 30.06 0.0
08 09:55 Vrbl 6 G 12 10.00 Fair CLR 66.2 48.2 52% 30.07 0.0
08 09:35 E 8 10.00 Fair CLR 64.4 48.2 56% 30.07 0.0
08 09:15 E 8 10.00 Fair CLR 62.6 50 64% 30.08 0.0
08 08:55 E 6 10.00 Fair CLR 62.6 51.8 68% 30.09 0.0
08 08:35 Calm 10.00 Fair CLR 59 51.8 77% 30.08 0.0
08 08:15 Calm 10.00 Fair CLR 57.2 51.8 82% 30.08 0.0
08 07:55 Calm 10.00 Fair CLR 55.4 51.8 88% 30.08 0.0
08 07:35 Calm 10.00 Fair CLR 53.6 51.8 94% 30.08 0.0
08 07:15 Calm 10.00 Fair CLR 51.8 51.8 100% 30.08 0.0
08 06:55 Calm 9.00 Fair CLR 50 50 100% 30.07 0.0
08 06:35 Calm 9.00 Fair CLR 48.2 48.2 100% 30.06 0.0
08 06:15 Calm 7.00 Fair CLR 48.2 48.2 100% 30.05 0.0
08 05:55 Calm 8.00 Fair CLR 48.2 48.2 100% 30.04 0.0
08 05:35 Calm 9.00 Fair CLR 48.2 48.2 100% 30.03 0.0
08 05:15 Calm 9.00 Fair CLR 50 50 100% 30.03 0.0
08 04:55 Calm 8.00 Fair CLR 50 50 100% 30.03 0.0
08 04:35 Calm 9.00 Fair CLR 50 50 100% 30.01 0.0
08 04:15 Calm 10.00 Fair CLR 50 50 100% 30 0.0
08 03:55 Calm 10.00 Fair CLR 50 50 100% 30 0.0
08 03:35 Calm 9.00 Fair CLR 50 50 100% 30 0.0
08 03:15 Calm 8.00 Fair CLR 50 50 100% 30 0.0
08 02:55 Calm 9.00 Fair CLR 50 50 100% 30 0.0
08 02:35 Calm 10.00 Fair CLR 50 50 100% 29.99 0.0
08 02:15 Calm 10.00 Fair CLR 51.8 51.8 100% 30 0.0
08 01:35 Calm 10.00 Fair CLR 55.4 51.8 88% 30.01 0.0
08 01:15 Calm 10.00 Fair CLR 53.6 53.6 100% 30.01 0.0
08 00:55 Calm 9.00 Fair CLR 51.8 51.8 100% 30.02 0.0
08 00:35 Calm 5.00 Fog/Mist CLR 53.6 53.6 100% 30.02 0.0
08 00:15 Calm 9.00 Fair CLR 53.6 53.6 100% 30.02 0.0
07 23:55 Calm 10.00 Fair CLR 53.6 53.6 100% 30.02 0.0
07 23:35 Calm 9.00 Fair CLR 53.6 53.6 100% 30.03 0.0
07 23:15 Calm 10.00 Fair CLR 53.6 53.6 100% 30.03 0.0
07 22:55 Calm 10.00 Fair CLR 53.6 53.6 100% 30.03 0.0
07 22:35 Calm 10.00 Fair CLR 55.4 55.4 100% 30.03 0.0
07 22:15 Calm 8.00 Fair CLR 55.4 55.4 100% 30.02 0.0
07 21:55 Calm 10.00 Fair CLR 55.4 55.4 100% 30.02 0.0
07 21:35 Calm 10.00 Fair CLR 55.4 55.4 100% 30.02 0.0
07 21:15 Calm 10.00 Fair CLR 55.4 55.4 100% 30.01 0.0
07 20:55 Calm 10.00 Fair CLR 57.2 55.4 94% 30.01 0.0
07 20:35 Calm 10.00 Fair CLR 57.2 57.2 100% 30 0.0
07 20:15 Calm 10.00 Fair CLR 57.2 57.2 100% 30 0.0
07 19:55 Calm 10.00 Fair CLR 59 57.2 94% 29.99 0.0
07 19:35 Calm 10.00 Fair CLR 60.8 57.2 88% 29.99 0.0
07 19:15 Calm 10.00 Fair CLR 62.6 55.4 77% 29.99 0.0
07 18:55 Calm 10.00 Partly Cloudy SCT047 64.4 53.6 68% 29.98 0.0
07 18:35 Vrbl 5 10.00 Mostly Cloudy BKN047 66.2 53.6 64% 29.98 0.0
07 18:15 Vrbl 5 10.00 Mostly Cloudy BKN047 68 53.6 60% 29.98 0.0
07 17:55 N 5 10.00 Mostly Cloudy BKN047 68 53.6 60% 29.97 0.0
07 17:35 N 6 10.00 Mostly Cloudy BKN046 71.6 53.6 53% 29.97 0.0
07 17:15 N 6 10.00 Partly Cloudy SCT047 69.8 55.4 60% 29.97 0.0
07 16:55 NW 6 10.00 A Few Clouds FEW045 71.6 55.4 57% 29.96 0.0
07 16:35 NW 7 10.00 Partly Cloudy SCT043 69.8 53.6 57% 29.96 0.0
07 16:15 NW 6 10.00 Partly Cloudy SCT043 69.8 53.6 57% 29.96 0.0
07 15:15 NW 8 10.00 Fair CLR 71.6 55.4 57% 29.97 0.0
Date Time (cdt) Wind (mph) Vis. (mi.) Weather Sky Cond. Air Dwpt Max. Min. Relative Humidity Wind Chill (°F) Heat Index (°F) altimeter (in) sea level (mb) 1 hr 3 hr 6 hr
6 hour
Temperature (ºF) Pressure Precipitation (in)